Time;durP1;ratioP1;P1;durP2;ratioP2;P2;SDS_P1;SDS_P2;PMS_P1;PMS_P2;Temp;Humidity;BMP_temperature;BMP_pressure;BME280_temperature;BME280_humidity;BME280_pressure;Samples;Min_cycle;Max_cycle;Signal;HPM_P1;HPM_P2
2023/07/14 00:01:50;;;;;;;5.90;3.90;;;;;;;18.56;92.24;98470.64;109311;1253;71540;-20
2023/07/14 00:04:34;;;;;;;4.30;3.90;;;;;;;18.74;91.44;98475.63;109316;1255;58859;-20
2023/07/14 00:07:03;;;;;;;8.80;4.20;;;;;;;18.97;89.85;98477.71;109214;1254;59234;-20
2023/07/14 00:09:31;;;;;;;6.00;4.20;;;;;;;18.88;89.44;98484.73;109245;1253;72112;-20
2023/07/14 00:11:59;;;;;;;8.90;3.90;;;;;;;18.70;90.83;98488.55;109325;1253;74384;-20
2023/07/14 00:14:27;;;;;;;6.10;4.30;;;;;;;18.76;92.40;98495.98;109209;1253;72571;-20
2023/07/14 00:16:55;;;;;;;4.80;4.40;;;;;;;19.00;91.02;98498.60;109295;1253;60069;-20
2023/07/14 00:19:22;;;;;;;8.90;5.00;;;;;;;19.02;90.26;98500.11;109250;1253;60025;-20
2023/07/14 00:21:52;;;;;;;9.20;5.30;;;;;;;18.86;90.56;98502.02;109323;1253;73079;-20
2023/07/14 00:24:23;;;;;;;7.10;3.90;;;;;;;18.71;91.86;98510.91;109222;1253;74334;-19
2023/07/14 00:26:56;;;;;;;5.30;4.00;;;;;;;18.99;90.68;98510.14;109243;1253;72698;-19
2023/07/14 00:29:38;;;;;;;4.30;3.80;;;;;;;18.98;87.91;98503.23;109103;1253;58901;-19
2023/07/14 00:32:24;;;;;;;5.10;3.20;;;;;;;18.83;87.43;98506.20;109131;1253;60023;-19
2023/07/14 00:34:51;;;;;;;4.60;3.60;;;;;;;18.51;88.06;98511.52;109153;1253;71783;-20
2023/07/14 00:37:19;;;;;;;3.70;3.00;;;;;;;18.27;89.76;98515.77;109184;1253;74313;-19
2023/07/14 00:39:47;;;;;;;5.00;3.70;;;;;;;18.59;89.06;98509.14;109189;1253;72678;-19
2023/07/14 00:42:14;;;;;;;6.70;3.40;;;;;;;18.64;88.56;98513.89;109239;1256;58851;-19
2023/07/14 00:44:43;;;;;;;7.50;3.60;;;;;;;18.52;88.83;98516.76;109115;1253;58840;-19
2023/07/14 00:47:19;;;;;;;5.00;3.00;;;;;;;18.32;89.55;98516.55;109088;1253;73094;-19
2023/07/14 00:49:49;;;;;;;5.00;3.30;;;;;;;18.15;90.48;98521.47;109216;1256;74297;-19
2023/07/14 00:52:21;;;;;;;4.20;3.20;;;;;;;18.44;89.36;98523.98;109002;1264;71454;-19
2023/07/14 00:54:51;;;;;;;3.80;3.20;;;;;;;18.55;88.00;98524.13;109017;1255;60066;-19
2023/07/14 00:57:20;;;;;;;5.50;3.60;;;;;;;18.21;89.20;98523.85;109111;1256;58667;-19
2023/07/14 00:59:48;;;;;;;6.10;3.70;;;;;;;17.89;91.17;98534.78;109039;1255;73042;-19
2023/07/14 01:02:19;;;;;;;4.10;2.70;;;;;;;17.74;92.72;98538.98;109109;1255;73214;-19
2023/07/14 01:05:04;;;;;;;4.90;3.00;;;;;;;18.02;91.22;98543.98;109136;1256;72728;-19
2023/07/14 01:07:40;;;;;;;5.40;3.30;;;;;;;18.11;89.77;98542.32;109100;1255;60081;-19
2023/07/14 01:10:09;;;;;;;4.40;3.10;;;;;;;17.95;89.69;98543.73;109064;1256;58769;-19
2023/07/14 01:12:38;;;;;;;4.40;2.90;;;;;;;17.73;90.37;98541.61;108941;1265;72302;-19
2023/07/14 01:15:06;;;;;;;7.60;2.60;;;;;;;17.68;90.96;98547.06;109020;1257;74347;-19
2023/07/14 01:17:34;;;;;;;3.70;2.60;;;;;;;18.13;88.90;98550.14;109058;1256;72706;-19
2023/07/14 01:20:11;;;;;;;4.70;3.10;;;;;;;18.16;86.99;98550.84;108990;1260;60198;-19
2023/07/14 01:23:00;;;;;;;4.90;2.90;;;;;;;17.92;87.80;98550.51;109205;1256;60029;-19
2023/07/14 01:25:35;;;;;;;5.20;3.00;;;;;;;17.66;88.96;98551.38;109072;1256;73053;-19
2023/07/14 01:28:04;;;;;;;3.00;2.20;;;;;;;17.53;90.10;98554.23;109110;1256;74315;-19
2023/07/14 01:30:33;;;;;;;5.60;2.80;;;;;;;17.89;88.93;98554.44;109011;1257;72667;-19
2023/07/14 01:33:00;;;;;;;4.30;2.50;;;;;;;18.02;88.14;98552.75;109077;1257;58821;-19
2023/07/14 01:35:31;;;;;;;3.20;2.70;;;;;;;17.84;87.91;98550.80;109094;1262;60086;-19
2023/07/14 01:37:58;;;;;;;3.20;2.80;;;;;;;17.52;88.51;98554.23;109087;1257;73084;-19
2023/07/14 01:40:26;;;;;;;3.80;2.10;;;;;;;17.36;90.09;98556.21;109017;1255;74345;-19
2023/07/14 01:42:55;;;;;;;5.20;2.60;;;;;;;17.66;89.20;98568.17;109128;1256;71257;-19
2023/07/14 01:45:23;;;;;;;4.70;2.50;;;;;;;17.85;87.77;98567.31;109017;1255;60202;-19
2023/07/14 01:47:53;;;;;;;3.60;2.70;;;;;;;17.67;88.59;98566.84;109042;1260;60078;-19
2023/07/14 01:50:41;;;;;;;5.80;2.40;;;;;;;17.30;89.49;98563.94;109062;1256;73803;-19
2023/07/14 01:53:10;;;;;;;2.70;2.00;;;;;;;17.05;90.46;98570.36;108986;1256;74296;-19
2023/07/14 01:55:39;;;;;;;4.90;2.10;;;;;;;17.35;89.26;98575.83;108946;1256;72747;-19
2023/07/14 01:58:14;;;;;;;5.00;2.30;;;;;;;17.47;87.92;98574.20;108989;1257;58807;-19
2023/07/14 02:00:43;;;;;;;3.90;2.30;;;;;;;17.35;88.57;98582.33;108955;1256;58732;-19
2023/07/14 02:03:12;;;;;;;3.50;2.20;;;;;;;17.07;89.73;98581.60;109107;1258;73833;-19
2023/07/14 02:05:40;;;;;;;1.90;1.60;;;;;;;17.01;91.07;98585.18;109022;1257;74342;-19
2023/07/14 02:08:12;;;;;;;3.80;2.20;;;;;;;17.28;89.52;98583.69;109066;1256;72657;-19
2023/07/14 02:10:40;;;;;;;6.10;2.10;;;;;;;17.29;87.94;98586.86;108960;1257;58801;-21
2023/07/14 02:13:07;;;;;;;7.20;2.60;;;;;;;17.17;88.10;98595.87;109136;1256;58734;-20
2023/07/14 02:15:35;;;;;;;2.70;2.00;;;;;;;16.94;89.30;98599.20;109024;1263;73843;-20
2023/07/14 02:18:02;;;;;;;4.10;1.70;;;;;;;16.73;90.63;98610.83;109103;1256;73041;-20
2023/07/14 02:20:35;;;;;;;4.30;2.30;;;;;;;17.09;89.72;98610.64;109082;1257;72709;-19
2023/07/14 02:23:04;;;;;;;3.60;2.00;;;;;;;17.37;88.45;98610.50;109055;1262;58841;-20
2023/07/14 02:25:35;;;;;;;4.20;2.30;;;;;;;17.23;87.75;98614.59;109022;1263;59997;-20
2023/07/14 02:28:03;;;;;;;4.20;2.50;;;;;;;16.99;88.88;98615.77;109026;1257;73872;-20
2023/07/14 02:30:32;;;;;;;2.50;1.80;;;;;;;16.80;90.16;98623.15;109003;1257;74311;-20
2023/07/14 02:33:20;;;;;;;5.10;2.40;;;;;;;17.16;89.63;98623.82;108985;1265;71372;-20
2023/07/14 02:35:50;;;;;;;2.40;1.90;;;;;;;17.39;87.43;98626.64;109111;1256;59113;-20
2023/07/14 02:38:18;;;;;;;4.20;2.60;;;;;;;17.28;88.04;98630.29;109050;1256;58768;-20
2023/07/14 02:41:15;;;;;;;4.40;2.40;;;;;;;16.94;89.28;98636.29;109169;1256;72579;-20
2023/07/14 02:43:43;;;;;;;3.10;1.80;;;;;;;16.82;90.96;98642.39;109044;1257;73342;-20
2023/07/14 02:46:27;;;;;;;4.40;2.30;;;;;;;17.17;89.86;98649.79;109065;1256;72615;-20
2023/07/14 02:48:55;;;;;;;4.90;2.10;;;;;;;17.34;88.51;98654.95;109066;1262;60070;-20
2023/07/14 02:51:22;;;;;;;3.80;2.00;;;;;;;17.14;89.62;98658.93;109052;1257;58739;-20
2023/07/14 02:53:50;;;;;;;8.40;2.70;;;;;;;16.94;90.92;98659.14;109001;1257;73847;-20
2023/07/14 02:56:19;;;;;;;2.90;1.80;;;;;;;16.80;92.28;98662.11;109004;1257;73085;-20
2023/07/14 02:58:49;;;;;;;5.10;1.90;;;;;;;17.08;91.51;98662.21;108990;1257;72720;-20
2023/07/14 03:01:18;;;;;;;4.10;2.30;;;;;;;17.39;89.08;98666.32;108996;1257;59262;-20
2023/07/14 03:03:46;;;;;;;3.70;1.70;;;;;;;17.30;88.57;98668.25;108996;1257;59186;-20
2023/07/14 03:06:16;;;;;;;2.40;2.10;;;;;;;17.00;89.93;98671.03;109053;1257;73963;-20
2023/07/14 03:08:44;;;;;;;3.20;1.60;;;;;;;16.77;90.73;98661.02;109006;1257;74570;-20
2023/07/14 03:11:11;;;;;;;3.30;1.50;;;;;;;17.24;90.11;98658.02;109043;1257;70332;-20
2023/07/14 03:13:39;;;;;;;2.60;1.90;;;;;;;17.61;88.42;98649.82;108981;1257;60246;-20
2023/07/14 03:16:07;;;;;;;3.20;1.90;;;;;;;17.63;87.37;98652.79;109087;1257;58776;-20
2023/07/14 03:18:35;;;;;;;2.00;1.80;;;;;;;17.42;86.81;98650.29;109060;1257;73811;-20
2023/07/14 03:21:03;;;;;;;1.90;1.40;;;;;;;17.22;87.65;98648.02;109120;1257;73041;-20
2023/07/14 03:23:31;;;;;;;2.20;1.40;;;;;;;17.64;87.82;98649.88;109053;1257;71027;-20
2023/07/14 03:26:05;;;;;;;2.50;1.60;;;;;;;18.06;85.88;98641.14;108971;1257;59072;-20
2023/07/14 03:28:34;;;;;;;2.20;1.50;;;;;;;18.11;85.26;98640.02;109033;1257;58773;-20
2023/07/14 03:31:01;;;;;;;2.50;1.60;;;;;;;17.97;85.33;98643.38;109038;1257;73922;-20
2023/07/14 03:33:29;;;;;;;2.30;1.70;;;;;;;17.78;85.54;98641.92;109099;1257;74367;-20
2023/07/14 03:36:05;;;;;;;2.00;1.40;;;;;;;17.57;85.99;98649.10;109019;1257;71417;-20
2023/07/14 03:38:44;;;;;;;3.20;1.70;;;;;;;17.97;86.01;98641.27;109067;1257;58858;-20
2023/07/14 03:41:13;;;;;;;3.70;1.70;;;;;;;18.34;83.77;98638.07;109022;1257;58781;-19
2023/07/14 03:43:42;;;;;;;1.70;1.40;;;;;;;18.28;83.47;98637.33;109042;1257;73831;-19
2023/07/14 03:46:10;;;;;;;1.90;1.60;;;;;;;18.10;84.33;98637.51;109090;1257;74312;-20
2023/07/14 03:48:39;;;;;;;2.40;1.80;;;;;;;17.85;85.33;98634.45;109084;1257;72677;-20
2023/07/14 03:51:06;;;;;;;5.80;1.40;;;;;;;17.63;86.48;98634.20;109089;1257;59911;-20
2023/07/14 03:53:35;;;;;;;1.80;1.10;;;;;;;17.99;86.45;98640.55;109061;1258;58835;-20
2023/07/14 03:56:03;;;;;;;4.70;1.90;;;;;;;18.28;84.39;98641.85;109148;1257;73837;-20
2023/07/14 03:58:31;;;;;;;4.60;2.10;;;;;;;18.19;84.42;98652.36;109068;1257;74245;-20
2023/07/14 04:01:00;;;;;;;2.20;1.60;;;;;;;17.90;85.52;98659.05;109054;1257;72670;-20
2023/07/14 04:03:28;;;;;;;3.80;2.00;;;;;;;17.54;87.46;98665.70;108938;1257;58774;-20
2023/07/14 04:05:56;;;;;;;3.00;1.60;;;;;;;17.41;89.08;98664.48;109097;1257;59231;-20
2023/07/14 04:08:28;;;;;;;4.10;1.60;;;;;;;17.82;87.97;98661.08;109041;1257;72585;-20
2023/07/14 04:10:55;;;;;;;3.60;2.60;;;;;;;18.11;85.74;98660.47;109001;1257;74330;-20
2023/07/14 04:13:24;;;;;;;4.10;1.70;;;;;;;18.15;85.52;98664.64;109015;1257;70810;-20
2023/07/14 04:15:52;;;;;;;2.50;1.60;;;;;;;18.01;86.17;98669.97;108995;1257;58799;-20
2023/07/14 04:18:20;;;;;;;2.40;1.50;;;;;;;17.85;86.55;98671.24;109114;1257;59990;-20
2023/07/14 04:20:47;;;;;;;1.90;1.30;;;;;;;17.79;87.44;98670.03;109066;1257;73844;-20
2023/07/14 04:23:18;;;;;;;2.00;1.20;;;;;;;18.26;85.75;98665.14;109012;1257;74377;-20
2023/07/14 04:25:46;;;;;;;2.80;1.60;;;;;;;18.65;83.33;98660.23;109003;1257;71732;-20
2023/07/14 04:28:14;;;;;;;1.90;1.50;;;;;;;18.65;82.73;98655.65;109084;1257;60089;-21
2023/07/14 04:30:41;;;;;;;3.70;1.70;;;;;;;18.55;83.22;98653.70;109014;1257;58782;-21
2023/07/14 04:33:09;;;;;;;3.80;2.00;;;;;;;18.34;84.18;98649.40;109082;1258;72636;-21
2023/07/14 04:35:37;;;;;;;3.10;1.30;;;;;;;18.20;85.31;98650.64;109073;1257;74323;-21
2023/07/14 04:38:06;;;;;;;3.40;1.90;;;;;;;18.69;84.47;98649.91;109124;1257;71913;-21
2023/07/14 04:40:36;;;;;;;3.10;2.20;;;;;;;19.07;82.79;98648.27;109048;1260;59318;-22
2023/07/14 04:43:04;;;;;;;4.00;2.40;;;;;;;18.98;83.15;98650.23;109095;1257;60021;-22
2023/07/14 04:45:36;;;;;;;5.10;2.60;;;;;;;18.82;84.26;98648.34;109018;1257;73934;-22
2023/07/14 04:48:06;;;;;;;3.90;2.50;;;;;;;18.65;85.96;98646.06;108997;1257;73449;-22
2023/07/14 04:50:36;;;;;;;4.10;2.40;;;;;;;18.58;86.51;98645.27;108927;1260;70922;-22
2023/07/14 04:53:05;;;;;;;4.50;3.00;;;;;;;18.92;85.22;98642.19;108947;1260;59174;-22
2023/07/14 04:55:36;;;;;;;4.90;3.30;;;;;;;19.09;84.84;98643.66;108968;1257;58872;-22
2023/07/14 04:58:08;;;;;;;4.60;3.50;;;;;;;19.02;85.45;98644.50;108974;1257;72671;-22
2023/07/14 05:00:40;;;;;;;5.70;3.80;;;;;;;18.87;86.91;98649.15;108980;1257;73179;-23
2023/07/14 05:03:10;;;;;;;4.70;2.80;;;;;;;18.78;88.50;98651.06;108961;1257;72713;-22
2023/07/14 05:05:41;;;;;;;4.90;4.10;;;;;;;19.20;87.64;98653.24;108988;1257;58785;-25
2023/07/14 05:08:11;;;;;;;6.60;3.80;;;;;;;19.30;86.30;98654.42;108988;1257;60050;-23
2023/07/14 05:10:41;;;;;;;4.80;3.90;;;;;;;19.17;86.60;98650.77;108998;1257;75205;-23
2023/07/14 05:13:12;;;;;;;8.20;4.30;;;;;;;19.07;88.08;98658.61;109002;1257;74343;-23
2023/07/14 05:15:44;;;;;;;4.50;3.50;;;;;;;19.02;88.94;98663.55;108973;1257;70694;-23
2023/07/14 05:18:18;;;;;;;5.50;4.00;;;;;;;19.42;87.46;98664.61;108936;1258;60143;-24
2023/07/14 05:20:49;;;;;;;6.40;4.40;;;;;;;19.69;85.73;98653.82;108974;1257;60015;-23
2023/07/14 05:23:19;;;;;;;7.10;4.70;;;;;;;19.57;85.67;98652.90;108982;1257;73902;-23
2023/07/14 05:25:49;;;;;;;9.00;4.80;;;;;;;19.29;86.68;98661.75;108997;1257;74290;-23
2023/07/14 05:28:19;;;;;;;5.60;3.40;;;;;;;19.12;88.26;98663.81;108966;1257;72661;-23
2023/07/14 05:30:52;;;;;;;5.50;4.30;;;;;;;19.50;86.88;98664.02;108986;1257;58943;-23
2023/07/14 05:33:23;;;;;;;7.50;4.40;;;;;;;19.65;85.75;98666.64;108962;1257;60099;-23
2023/07/14 05:35:52;;;;;;;7.20;4.40;;;;;;;19.59;85.43;98670.61;109017;1257;72960;-23
2023/07/14 05:38:23;;;;;;;6.90;4.80;;;;;;;19.45;86.86;98674.45;108981;1257;74292;-24
2023/07/14 05:40:53;;;;;;;5.20;3.60;;;;;;;19.33;87.03;98667.11;108947;1257;71459;-23
2023/07/14 05:43:27;;;;;;;5.20;4.00;;;;;;;19.67;86.04;98666.27;109085;1257;58802;-23
2023/07/14 05:45:58;;;;;;;8.70;4.30;;;;;;;19.94;84.24;98665.93;108978;1257;60027;-23
2023/07/14 05:56:05;;;;;;;4.10;3.50;;;;;;;19.82;86.77;98674.95;102645;1290;600158;-22
2023/07/14 05:58:33;;;;;;;8.10;4.60;;;;;;;20.45;82.91;98672.23;104828;1264;61120;-23
2023/07/14 06:01:01;;;;;;;5.30;4.30;;;;;;;20.98;81.01;98672.14;104835;1264;61173;-23
2023/07/14 06:03:29;;;;;;;7.50;4.20;;;;;;;21.09;80.01;98671.34;104842;1270;72208;-21
2023/07/14 06:05:57;;;;;;;6.00;4.50;;;;;;;21.08;79.07;98667.88;104800;1271;72636;-22
2023/07/14 06:08:25;;;;;;;8.60;5.10;;;;;;;21.08;80.28;98676.35;104787;1264;70418;-24
2023/07/14 06:10:52;;;;;;;6.90;3.60;;;;;;;21.00;79.60;98672.95;103083;1262;2733140;-22
2023/07/14 06:13:21;;;;;;;6.30;4.20;;;;;;;21.50;78.04;98671.34;104871;1263;61162;-23
2023/07/14 06:15:49;;;;;;;8.80;4.50;;;;;;;21.81;75.83;98674.73;104925;1263;71004;-23
2023/07/14 06:18:17;;;;;;;6.70;4.10;;;;;;;21.86;75.85;98673.23;105084;1268;74312;-22
2023/07/14 06:20:45;;;;;;;7.20;4.60;;;;;;;21.58;75.59;98680.04;105003;1268;72750;-22
2023/07/14 06:23:12;;;;;;;6.00;4.70;;;;;;;21.57;76.55;98686.65;105048;1268;61160;-22
2023/07/14 06:25:41;;;;;;;5.40;3.80;;;;;;;21.44;74.55;98684.81;104919;1265;61186;-23
2023/07/14 06:28:09;;;;;;;7.20;3.60;;;;;;;21.41;75.23;98688.43;104971;1265;71781;-22
2023/07/14 06:38:36;;;;;;;5.90;4.40;;;;;;;22.16;72.67;98699.98;102514;1293;615318;-22
2023/07/14 06:41:07;;;;;;;6.10;4.40;;;;;;;21.77;72.26;98700.24;105170;1264;61008;-21
2023/07/14 06:43:34;;;;;;;6.90;3.80;;;;;;;21.58;72.82;98702.62;105100;1269;61150;-22
2023/07/14 06:46:01;;;;;;;6.60;4.10;;;;;;;21.41;72.86;98700.63;105100;1264;72112;-22
2023/07/14 06:48:29;;;;;;;7.00;3.60;;;;;;;21.34;74.48;98704.05;104856;1270;74343;-22
2023/07/14 06:50:56;;;;;;;6.40;3.70;;;;;;;21.40;74.51;98708.73;103169;1267;2691164;-21
2023/07/14 06:53:23;;;;;;;4.20;3.40;;;;;;;21.83;71.75;98706.88;104815;1271;61304;-21
2023/07/14 06:55:50;;;;;;;5.30;3.60;;;;;;;21.97;70.86;98713.55;105240;1263;61054;-21
2023/07/14 06:58:18;;;;;;;6.70;3.40;;;;;;;22.01;71.44;98718.47;105241;1266;72098;-21
2023/07/14 07:00:45;;;;;;;5.10;4.10;;;;;;;22.02;71.83;98717.41;105256;1264;74152;-21
2023/07/14 07:03:12;;;;;;;4.80;3.60;;;;;;;21.98;72.31;98717.26;105237;1263;72639;-21
2023/07/14 07:05:43;;;;;;;8.30;4.10;;;;;;;21.77;72.59;98721.86;105233;1264;61074;-21
2023/07/14 07:08:11;;;;;;;4.10;3.70;;;;;;;21.60;72.69;98727.84;104820;1270;61518;-22
2023/07/14 07:10:42;;;;;;;4.90;3.20;;;;;;;21.35;72.41;98729.92;104888;1263;72949;-21
2023/07/14 07:13:10;;;;;;;5.20;2.90;;;;;;;21.73;71.60;98732.48;105164;1264;74342;-21
2023/07/14 07:15:39;;;;;;;4.60;2.70;;;;;;;22.28;67.60;98729.43;104918;1264;73004;-21
2023/07/14 07:18:06;;;;;;;5.30;2.80;;;;;;;22.35;67.59;98732.64;104971;1264;61211;-21
2023/07/14 07:20:42;;;;;;;4.80;3.60;;;;;;;22.08;68.04;98729.22;105006;1263;61067;-21
2023/07/14 07:23:09;;;;;;;4.20;3.20;;;;;;;21.87;68.59;98741.95;104848;1269;72730;-22
2023/07/14 07:25:36;;;;;;;4.40;3.90;;;;;;;21.84;69.31;98749.41;104985;1264;74321;-21
2023/07/14 07:28:04;;;;;;;4.20;3.40;;;;;;;21.66;70.48;98746.91;105098;1262;72446;-21
2023/07/14 07:30:31;;;;;;;7.00;3.60;;;;;;;21.56;70.86;98753.52;104872;1264;61052;-21
2023/07/14 07:32:59;;;;;;;5.90;3.50;;;;;;;21.62;70.59;98752.43;105006;1266;61221;-22
2023/07/14 07:35:26;;;;;;;5.90;3.50;;;;;;;21.76;71.69;98753.52;105010;1263;71971;-22
2023/07/14 07:37:53;;;;;;;4.50;2.70;;;;;;;21.82;70.88;98750.30;105148;1266;72723;-21
2023/07/14 07:40:20;;;;;;;4.10;2.90;;;;;;;22.23;67.93;98751.40;105199;1263;72619;-22
2023/07/14 07:42:47;;;;;;;4.70;3.00;;;;;;;22.37;66.73;98756.88;104895;1264;61064;-23
2023/07/14 07:45:16;;;;;;;6.30;2.60;;;;;;;22.48;66.27;98766.35;104933;1266;61185;-21
2023/07/14 07:47:45;;;;;;;3.50;2.60;;;;;;;22.70;66.20;98766.60;104966;1264;73588;-23
2023/07/14 07:50:12;;;;;;;3.80;2.20;;;;;;;22.57;64.93;98772.62;105344;1257;74370;-22
2023/07/14 07:52:40;;;;;;;7.30;2.50;;;;;;;22.52;65.27;98770.93;105577;1257;73175;-22
2023/07/14 07:55:08;;;;;;;7.80;2.70;;;;;;;22.46;64.64;98765.14;105383;1258;61129;-21
2023/07/14 07:57:36;;;;;;;3.30;2.00;;;;;;;22.44;65.12;98766.90;105362;1260;61269;-22
2023/07/14 08:00:05;;;;;;;8.30;2.50;;;;;;;22.49;65.19;98767.53;105430;1257;73002;-22
2023/07/14 08:02:41;;;;;;;5.00;2.30;;;;;;;22.78;65.56;98768.08;105488;1261;73605;-22
2023/07/14 08:05:11;;;;;;;6.20;2.20;;;;;;;22.92;63.85;98770.19;105635;1256;72615;-23
2023/07/14 08:07:37;;;;;;;4.50;2.10;;;;;;;23.03;64.40;98773.94;105232;1260;61190;-23
2023/07/14 08:10:05;;;;;;;5.70;1.90;;;;;;;23.19;63.66;98770.39;105457;1257;61090;-23
2023/07/14 08:12:33;;;;;;;4.30;1.90;;;;;;;23.40;60.62;98772.31;105351;1257;73045;-22
2023/07/14 08:15:00;;;;;;;5.60;1.70;;;;;;;23.51;59.58;98769.69;105671;1257;74405;-23
2023/07/14 08:17:29;;;;;;;3.10;1.50;;;;;;;23.69;60.12;98771.22;105533;1257;72633;-23
2023/07/14 08:19:56;;;;;;;8.80;2.10;;;;;;;23.58;59.58;98772.41;105578;1257;61247;-22
2023/07/14 08:22:25;;;;;;;1.90;1.70;;;;;;;23.51;60.86;98778.72;105656;1259;61186;-22
2023/07/14 08:24:55;;;;;;;3.00;1.60;;;;;;;23.46;61.47;98776.80;105718;1260;72972;-22
2023/07/14 08:27:22;;;;;;;4.50;1.70;;;;;;;23.26;62.11;98776.73;105526;1262;74202;-23
2023/07/14 08:29:49;;;;;;;4.80;2.10;;;;;;;23.11;61.56;98777.63;105630;1257;73361;-22
2023/07/14 08:32:17;;;;;;;3.30;2.00;;;;;;;23.01;62.97;98782.41;105669;1257;61186;-22
2023/07/14 08:34:44;;;;;;;6.30;1.90;;;;;;;22.73;61.25;98784.75;105627;1257;61086;-22
2023/07/14 08:37:11;;;;;;;4.00;1.70;;;;;;;22.59;62.44;98793.88;105527;1258;72904;-22
2023/07/14 08:39:39;;;;;;;3.90;1.70;;;;;;;22.62;63.09;98791.09;105674;1257;74031;-22
2023/07/14 08:42:30;;;;;;;6.00;2.00;;;;;;;22.54;62.64;98795.28;105615;1255;72482;-23
2023/07/14 08:45:06;;;;;;;4.60;1.60;;;;;;;22.38;62.27;98802.98;105238;1258;61065;-23
2023/07/14 08:47:49;;;;;;;3.10;1.50;;;;;;;22.41;61.50;98800.50;105283;1263;61314;-23
2023/07/14 08:50:20;;;;;;;3.00;1.60;;;;;;;22.30;61.82;98805.80;105548;1257;73032;-23
2023/07/14 08:52:49;;;;;;;;;;;;;;;22.49;61.49;98810.72;105629;1261;74130;-23
2023/07/14 08:55:18;;;;;;;2.90;1.60;;;;;;;22.78;61.63;98811.20;105643;1256;72645;-22
2023/07/14 08:57:50;;;;;;;3.50;1.40;;;;;;;22.95;60.65;98816.30;105287;1257;61114;-21
2023/07/14 09:00:38;;;;;;;4.40;1.50;;;;;;;23.17;61.62;98814.75;105412;1257;61272;-23
2023/07/14 09:03:30;;;;;;;5.40;2.00;;;;;;;23.32;60.56;98812.87;105184;1257;71888;-22
2023/07/14 09:06:13;;;;;;;4.20;1.60;;;;;;;23.37;60.22;98809.08;105536;1258;74347;-22
2023/07/14 09:08:45;;;;;;;4.70;1.90;;;;;;;23.36;58.85;98812.98;105635;1257;73173;-21
2023/07/14 09:11:31;;;;;;;4.20;1.60;;;;;;;23.20;59.43;98813.48;105523;1255;61077;-23
2023/07/14 09:14:17;;;;;;;2.40;1.40;;;;;;;23.20;58.39;98817.66;105403;1263;61067;-21
2023/07/14 09:16:59;;;;;;;3.70;1.50;;;;;;;23.55;60.08;98818.23;105678;1258;72781;-21
2023/07/14 09:19:40;;;;;;;3.90;1.40;;;;;;;23.70;57.51;98816.46;105655;1254;74370;-22
2023/07/14 09:22:20;;;;;;;2.20;1.50;;;;;;;23.58;58.16;98820.95;105680;1254;72791;-22
2023/07/14 09:24:53;;;;;;;2.80;1.40;;;;;;;23.61;57.39;98816.05;105828;1254;61152;-22
2023/07/14 09:27:23;;;;;;;4.20;1.60;;;;;;;23.57;58.20;98816.21;105690;1253;61561;-22
2023/07/14 09:29:50;;;;;;;5.50;2.10;;;;;;;23.37;57.13;98812.75;105738;1254;71771;-22
2023/07/14 09:32:32;;;;;;;2.70;1.60;;;;;;;23.19;57.71;98816.64;105706;1254;74305;-23
2023/07/14 09:35:18;;;;;;;3.10;1.30;;;;;;;23.37;56.57;98813.55;105660;1253;72637;-23
2023/07/14 09:37:57;;;;;;;4.40;1.20;;;;;;;23.54;54.98;98811.66;105716;1253;61141;-23
2023/07/14 09:40:25;;;;;;;7.70;1.30;;;;;;;23.88;56.13;98813.16;105650;1251;61102;-23
2023/07/14 09:42:54;;;;;;;3.70;1.40;;;;;;;24.10;54.53;98815.30;105694;1251;73841;-23
2023/07/14 09:45:23;;;;;;;2.90;1.40;;;;;;;24.36;53.12;98817.82;105701;1260;74427;-23
2023/07/14 09:48:00;;;;;;;2.20;1.30;;;;;;;24.62;54.00;98820.11;105742;1259;71474;-23
2023/07/14 09:50:29;;;;;;;2.80;1.10;;;;;;;24.94;52.22;98823.80;105738;1254;61080;-23
2023/07/14 09:53:00;;;;;;;4.70;1.40;;;;;;;24.66;52.04;98816.86;105759;1251;61503;-22
2023/07/14 09:55:27;;;;;;;4.70;1.30;;;;;;;24.18;52.35;98829.00;105793;1251;73142;-23
2023/07/14 09:57:54;;;;;;;2.70;1.20;;;;;;;24.30;52.25;98829.58;105907;1251;74949;-22
2023/07/14 10:00:40;;;;;;;3.60;1.20;;;;;;;24.61;52.83;98827.75;105778;1251;72712;-23
2023/07/14 10:03:11;;;;;;;4.50;1.30;;;;;;;24.80;53.48;98827.17;105991;1251;61031;-23
2023/07/14 10:05:51;;;;;;;5.20;1.40;;;;;;;24.72;53.75;98823.16;105760;1257;61116;-22
2023/07/14 10:08:52;;;;;;;4.10;1.30;;;;;;;24.57;53.99;98827.73;105925;1251;73062;-24
2023/07/14 10:11:47;;;;;;;4.40;1.40;;;;;;;24.21;53.97;98830.63;105733;1259;74510;-23
2023/07/14 10:14:36;;;;;;;2.90;1.10;;;;;;;24.04;54.38;98834.77;105900;1255;72808;-23
2023/07/14 10:17:04;;;;;;;4.90;1.30;;;;;;;24.27;54.37;98837.08;105690;1251;61214;-23
2023/07/14 10:19:37;;;;;;;2.60;1.90;;;;;;;24.45;53.40;98838.67;105654;1251;61141;-22
2023/07/14 10:22:11;;;;;;;3.70;1.30;;;;;;;24.58;51.78;98835.91;105790;1257;71987;-22
2023/07/14 10:24:38;;;;;;;6.50;1.40;;;;;;;24.69;51.96;98837.17;105422;1259;74341;-22
2023/07/14 10:27:15;;;;;;;4.40;1.30;;;;;;;25.03;52.24;98834.19;105597;1251;71400;-22
2023/07/14 10:29:51;;;;;;;2.50;1.20;;;;;;;25.01;50.97;98839.52;105663;1251;61163;-22
2023/07/14 10:32:24;;;;;;;3.90;1.30;;;;;;;24.70;51.48;98842.64;105710;1251;61045;-22
2023/07/14 10:34:59;;;;;;;3.60;1.40;;;;;;;24.53;53.05;98839.39;105867;1257;73469;-22
2023/07/14 10:37:29;;;;;;;3.10;1.30;;;;;;;24.57;54.01;98836.55;105730;1251;72966;-22
2023/07/14 10:40:04;;;;;;;5.30;1.60;;;;;;;24.18;53.29;98829.45;105758;1251;71370;-22
2023/07/14 10:42:34;;;;;;;4.00;1.20;;;;;;;24.05;54.05;98829.77;105780;1257;61250;-22
2023/07/14 10:45:02;;;;;;;2.40;1.10;;;;;;;24.19;52.35;98832.52;105749;1252;61220;-22
2023/07/14 10:47:52;;;;;;;3.50;1.40;;;;;;;23.94;53.14;98831.95;105755;1251;73031;-23
2023/07/14 10:50:26;;;;;;;1.90;1.20;;;;;;;23.55;54.12;98835.55;105748;1252;74289;-23
2023/07/14 10:52:57;;;;;;;4.90;1.40;;;;;;;23.85;54.48;98837.98;105725;1251;72592;-23
2023/07/14 10:55:27;;;;;;;2.50;1.10;;;;;;;24.19;53.79;98838.51;105676;1261;61915;-21
2023/07/14 10:58:05;;;;;;;3.80;1.30;;;;;;;24.32;53.22;98839.10;105840;1259;61247;-23
2023/07/14 11:00:46;;;;;;;2.70;1.30;;;;;;;24.60;52.98;98839.09;105581;1260;72836;-21
2023/07/14 11:03:21;;;;;;;2.40;1.50;;;;;;;24.74;53.34;98836.23;105813;1252;74095;-21
2023/07/14 11:06:12;;;;;;;3.80;1.30;;;;;;;24.87;53.34;98834.78;105707;1251;71702;-21
2023/07/14 11:08:39;;;;;;;3.90;1.20;;;;;;;24.97;52.75;98830.35;105909;1251;61129;-21
2023/07/14 11:11:15;;;;;;;2.10;1.20;;;;;;;24.84;53.35;98832.45;105962;1253;61106;-21
2023/07/14 11:13:45;;;;;;;3.20;1.10;;;;;;;25.02;53.61;98825.64;105906;1258;73913;-21
2023/07/14 11:16:26;;;;;;;1.80;1.10;;;;;;;25.03;52.69;98825.94;105965;1254;74394;-21
2023/07/14 11:19:10;;;;;;;4.90;1.10;;;;;;;24.76;53.41;98829.25;105762;1254;73325;-22
2023/07/14 11:21:40;;;;;;;4.20;1.30;;;;;;;24.30;53.01;98832.02;105897;1257;61153;-21
2023/07/14 11:24:22;;;;;;;1.80;1.10;;;;;;;24.30;51.69;98828.07;105954;1256;61055;-24
2023/07/14 11:27:01;;;;;;;2.00;1.20;;;;;;;24.65;52.45;98826.75;105889;1256;73804;-22
2023/07/14 11:29:32;;;;;;;3.00;1.20;;;;;;;24.77;54.49;98824.91;105932;1256;74465;-22
2023/07/14 11:32:00;;;;;;;2.60;1.20;;;;;;;24.91;55.99;98825.02;105746;1255;71482;-23
2023/07/14 11:34:37;;;;;;;3.30;1.20;;;;;;;24.52;56.82;98826.41;105876;1251;61297;-22
2023/07/14 11:37:17;;;;;;;2.90;1.30;;;;;;;23.79;58.66;98826.83;105742;1251;61048;-23
2023/07/14 11:39:56;;;;;;;3.10;1.20;;;;;;;23.33;59.90;98823.14;105906;1256;73658;-23
2023/07/14 11:42:34;;;;;;;2.60;1.20;;;;;;;22.95;61.16;98821.08;105759;1258;74317;-23
2023/07/14 11:45:05;;;;;;;1.80;1.10;;;;;;;23.12;63.40;98824.59;105729;1252;72691;-23
2023/07/14 11:47:41;;;;;;;3.20;1.30;;;;;;;23.48;61.84;98825.30;105822;1256;61181;-23
2023/07/14 11:50:17;;;;;;;2.70;1.70;;;;;;;23.60;60.00;98821.98;105787;1257;61231;-23
2023/07/14 11:53:09;;;;;;;1.70;1.30;;;;;;;23.38;59.76;98828.80;105825;1259;72684;-23
2023/07/14 11:55:43;;;;;;;2.40;1.40;;;;;;;23.46;62.07;98831.32;105901;1256;74545;-23
2023/07/14 11:58:28;;;;;;;2.30;1.50;;;;;;;23.41;60.53;98826.82;105728;1259;72595;-22
2023/07/14 12:00:59;;;;;;;3.10;1.60;;;;;;;23.11;61.54;98828.64;105705;1257;61189;-21